sensor_id;sensor_type;location;lat;lon;timestamp;P1;durP1;ratioP1;P2;durP2;ratioP2
9094;SDS011;4583;49.796;9.902;2023-02-26T00:09:29;10.30;;;4.50;;
9094;SDS011;4583;49.796;9.902;2023-02-26T00:19:31;5.27;;;3.27;;
9094;SDS011;4583;49.796;9.902;2023-02-26T00:29:32;7.57;;;3.53;;
9094;SDS011;4583;49.796;9.902;2023-02-26T00:39:40;5.43;;;2.20;;
9094;SDS011;4583;49.796;9.902;2023-02-26T00:59:58;10.60;;;4.03;;
9094;SDS011;4583;49.796;9.902;2023-02-26T01:10:00;9.30;;;3.57;;
9094;SDS011;4583;49.796;9.902;2023-02-26T01:20:14;8.93;;;3.50;;
9094;SDS011;4583;49.796;9.902;2023-02-26T01:30:37;6.17;;;3.37;;
9094;SDS011;4583;49.796;9.902;2023-02-26T01:51:00;9.75;;;5.00;;
9094;SDS011;4583;49.796;9.902;2023-02-26T02:01:02;6.23;;;3.40;;
9094;SDS011;4583;49.796;9.902;2023-02-26T02:11:05;6.97;;;3.00;;
9094;SDS011;4583;49.796;9.902;2023-02-26T02:31:49;6.80;;;2.90;;
9094;SDS011;4583;49.796;9.902;2023-02-26T02:42:03;4.47;;;2.77;;
9094;SDS011;4583;49.796;9.902;2023-02-26T02:52:28;7.03;;;2.73;;
9094;SDS011;4583;49.796;9.902;2023-02-26T03:02:46;6.53;;;2.37;;
9094;SDS011;4583;49.796;9.902;2023-02-26T03:12:53;5.37;;;2.60;;
9094;SDS011;4583;49.796;9.902;2023-02-26T03:53:17;5.40;;;2.30;;
9094;SDS011;4583;49.796;9.902;2023-02-26T04:03:25;5.20;;;1.90;;
9094;SDS011;4583;49.796;9.902;2023-02-26T04:13:33;4.00;;;2.37;;
9094;SDS011;4583;49.796;9.902;2023-02-26T04:23:35;5.20;;;2.00;;
9094;SDS011;4583;49.796;9.902;2023-02-26T04:33:36;5.70;;;1.83;;
9094;SDS011;4583;49.796;9.902;2023-02-26T04:43:38;4.43;;;1.87;;
9094;SDS011;4583;49.796;9.902;2023-02-26T04:53:40;7.83;;;1.80;;
9094;SDS011;4583;49.796;9.902;2023-02-26T05:03:42;3.03;;;1.80;;
9094;SDS011;4583;49.796;9.902;2023-02-26T05:13:43;2.47;;;1.50;;
9094;SDS011;4583;49.796;9.902;2023-02-26T05:23:45;3.77;;;1.60;;
9094;SDS011;4583;49.796;9.902;2023-02-26T05:38:05;2.07;;;1.50;;
9094;SDS011;4583;49.796;9.902;2023-02-26T05:48:07;3.13;;;1.63;;
9094;SDS011;4583;49.796;9.902;2023-02-26T05:58:11;8.03;;;1.67;;
9094;SDS011;4583;49.796;9.902;2023-02-26T06:08:12;4.97;;;2.17;;
9094;SDS011;4583;49.796;9.902;2023-02-26T06:18:16;2.43;;;1.50;;
9094;SDS011;4583;49.796;9.902;2023-02-26T06:28:18;4.67;;;1.60;;
9094;SDS011;4583;49.796;9.902;2023-02-26T06:38:20;5.47;;;2.10;;
9094;SDS011;4583;49.796;9.902;2023-02-26T06:48:22;4.23;;;1.73;;
9094;SDS011;4583;49.796;9.902;2023-02-26T06:58:24;3.53;;;1.60;;
9094;SDS011;4583;49.796;9.902;2023-02-26T07:08:25;4.27;;;1.70;;
9094;SDS011;4583;49.796;9.902;2023-02-26T07:18:27;3.67;;;1.53;;
9094;SDS011;4583;49.796;9.902;2023-02-26T07:28:29;4.95;;;2.08;;
9094;SDS011;4583;49.796;9.902;2023-02-26T07:38:30;4.17;;;1.50;;
9094;SDS011;4583;49.796;9.902;2023-02-26T07:48:33;3.30;;;1.60;;
9094;SDS011;4583;49.796;9.902;2023-02-26T07:58:35;5.47;;;1.37;;
9094;SDS011;4583;49.796;9.902;2023-02-26T08:08:36;2.73;;;1.40;;
9094;SDS011;4583;49.796;9.902;2023-02-26T08:18:38;2.60;;;1.40;;
9094;SDS011;4583;49.796;9.902;2023-02-26T08:28:40;2.97;;;1.57;;
9094;SDS011;4583;49.796;9.902;2023-02-26T08:38:41;1.60;;;1.47;;
9094;SDS011;4583;49.796;9.902;2023-02-26T08:48:43;5.30;;;2.40;;
9094;SDS011;4583;49.796;9.902;2023-02-26T08:58:45;1.70;;;1.20;;
9094;SDS011;4583;49.796;9.902;2023-02-26T09:09:37;1.80;;;1.10;;
9094;SDS011;4583;49.796;9.902;2023-02-26T09:19:39;2.30;;;1.30;;
9094;SDS011;4583;49.796;9.902;2023-02-26T09:39:17;1.30;;;1.10;;
9094;SDS011;4583;49.796;9.902;2023-02-26T09:59:39;2.00;;;1.23;;
9094;SDS011;4583;49.796;9.902;2023-02-26T10:09:53;1.57;;;1.13;;
9094;SDS011;4583;49.796;9.902;2023-02-26T10:20:05;1.77;;;1.10;;
9094;SDS011;4583;49.796;9.902;2023-02-26T10:40:38;1.57;;;1.30;;
9094;SDS011;4583;49.796;9.902;2023-02-26T10:50:58;2.57;;;0.97;;
9094;SDS011;4583;49.796;9.902;2023-02-26T11:01:06;1.53;;;1.03;;
9094;SDS011;4583;49.796;9.902;2023-02-26T11:21:37;1.20;;;1.00;;
9094;SDS011;4583;49.796;9.902;2023-02-26T11:31:41;1.37;;;1.00;;
9094;SDS011;4583;49.796;9.902;2023-02-26T11:41:45;1.30;;;1.00;;
9094;SDS011;4583;49.796;9.902;2023-02-26T11:51:59;2.00;;;1.30;;
9094;SDS011;4583;49.796;9.902;2023-02-26T12:02:17;2.30;;;0.90;;
9094;SDS011;4583;49.796;9.902;2023-02-26T12:12:40;1.30;;;1.10;;
9094;SDS011;4583;49.796;9.902;2023-02-26T12:33:34;1.93;;;1.30;;
9094;SDS011;4583;49.796;9.902;2023-02-26T13:14:40;2.23;;;1.40;;
9094;SDS011;4583;49.796;9.902;2023-02-26T13:25:04;2.47;;;1.47;;
9094;SDS011;4583;49.796;9.902;2023-02-26T13:41:48;1.52;;;1.27;;
9094;SDS011;4583;49.796;9.902;2023-02-26T13:51:59;1.73;;;1.20;;
9094;SDS011;4583;49.796;9.902;2023-02-26T14:02:02;2.47;;;1.20;;
9094;SDS011;4583;49.796;9.902;2023-02-26T14:12:23;4.13;;;1.10;;
9094;SDS011;4583;49.796;9.902;2023-02-26T14:22:34;1.10;;;1.00;;
9094;SDS011;4583;49.796;9.902;2023-02-26T14:33:05;1.43;;;1.13;;
9094;SDS011;4583;49.796;9.902;2023-02-26T14:43:13;1.77;;;1.10;;
9094;SDS011;4583;49.796;9.902;2023-02-26T14:53:42;1.50;;;1.00;;
9094;SDS011;4583;49.796;9.902;2023-02-26T15:14:54;2.63;;;1.10;;
9094;SDS011;4583;49.796;9.902;2023-02-26T15:24:59;2.70;;;0.90;;
9094;SDS011;4583;49.796;9.902;2023-02-26T15:35:09;1.63;;;0.80;;
9094;SDS011;4583;49.796;9.902;2023-02-26T15:45:22;0.73;;;0.70;;
9094;SDS011;4583;49.796;9.902;2023-02-26T15:55:30;2.50;;;0.90;;
9094;SDS011;4583;49.796;9.902;2023-02-26T16:05:38;2.00;;;1.10;;
9094;SDS011;4583;49.796;9.902;2023-02-26T16:23:15;1.33;;;1.10;;
9094;SDS011;4583;49.796;9.902;2023-02-26T16:33:23;1.77;;;1.30;;
9094;SDS011;4583;49.796;9.902;2023-02-26T16:53:48;1.33;;;1.20;;
9094;SDS011;4583;49.796;9.902;2023-02-26T17:03:59;1.60;;;1.10;;
9094;SDS011;4583;49.796;9.902;2023-02-26T17:14:20;2.07;;;1.30;;
9094;SDS011;4583;49.796;9.902;2023-02-26T17:24:31;1.33;;;0.97;;
9094;SDS011;4583;49.796;9.902;2023-02-26T17:34:40;1.60;;;1.07;;
9094;SDS011;4583;49.796;9.902;2023-02-26T17:44:43;1.80;;;1.17;;
9094;SDS011;4583;49.796;9.902;2023-02-26T17:54:45;1.23;;;1.03;;
9094;SDS011;4583;49.796;9.902;2023-02-26T18:04:47;1.03;;;0.83;;
9094;SDS011;4583;49.796;9.902;2023-02-26T18:14:49;1.93;;;1.20;;
9094;SDS011;4583;49.796;9.902;2023-02-26T18:24:51;1.63;;;1.10;;
9094;SDS011;4583;49.796;9.902;2023-02-26T18:34:53;1.57;;;1.20;;
9094;SDS011;4583;49.796;9.902;2023-02-26T18:44:55;2.10;;;1.17;;
9094;SDS011;4583;49.796;9.902;2023-02-26T18:54:57;2.37;;;1.30;;
9094;SDS011;4583;49.796;9.902;2023-02-26T19:05:00;2.50;;;1.63;;
9094;SDS011;4583;49.796;9.902;2023-02-26T19:15:02;3.20;;;1.60;;
9094;SDS011;4583;49.796;9.902;2023-02-26T19:25:04;3.73;;;1.70;;
9094;SDS011;4583;49.796;9.902;2023-02-26T19:35:06;3.27;;;1.90;;
9094;SDS011;4583;49.796;9.902;2023-02-26T19:45:09;8.13;;;1.97;;
9094;SDS011;4583;49.796;9.902;2023-02-26T19:55:11;2.33;;;1.73;;
9094;SDS011;4583;49.796;9.902;2023-02-26T20:05:14;3.57;;;1.90;;
9094;SDS011;4583;49.796;9.902;2023-02-26T20:15:18;4.33;;;1.90;;
9094;SDS011;4583;49.796;9.902;2023-02-26T20:25:19;3.47;;;2.10;;
9094;SDS011;4583;49.796;9.902;2023-02-26T20:37:36;4.17;;;2.03;;
9094;SDS011;4583;49.796;9.902;2023-02-26T20:47:38;3.43;;;1.87;;
9094;SDS011;4583;49.796;9.902;2023-02-26T20:57:40;3.80;;;2.10;;
9094;SDS011;4583;49.796;9.902;2023-02-26T21:07:41;5.63;;;2.20;;
9094;SDS011;4583;49.796;9.902;2023-02-26T21:17:43;2.97;;;2.10;;
9094;SDS011;4583;49.796;9.902;2023-02-26T21:27:45;6.23;;;2.23;;
9094;SDS011;4583;49.796;9.902;2023-02-26T21:37:47;3.40;;;2.27;;
9094;SDS011;4583;49.796;9.902;2023-02-26T21:47:48;4.20;;;2.00;;
9094;SDS011;4583;49.796;9.902;2023-02-26T21:57:50;2.53;;;1.93;;
9094;SDS011;4583;49.796;9.902;2023-02-26T22:07:52;2.57;;;1.80;;
9094;SDS011;4583;49.796;9.902;2023-02-26T22:17:54;2.20;;;1.90;;
9094;SDS011;4583;49.796;9.902;2023-02-26T22:27:56;3.43;;;2.10;;
9094;SDS011;4583;49.796;9.902;2023-02-26T22:37:58;4.20;;;1.70;;
9094;SDS011;4583;49.796;9.902;2023-02-26T22:57:17;3.33;;;1.90;;
